Time;durP1;ratioP1;P1;durP2;ratioP2;P2;SDS_P1;SDS_P2;PMS_P1;PMS_P2;Temp;Humidity;BMP_temperature;BMP_pressure;BME280_temperature;BME280_humidity;BME280_pressure;Samples;Min_cycle;Max_cycle;Signal;HPM_P1;HPM_P2
2023/05/21 00:00:44;;;;;;;15.30;13.60;;;14.00;99.90;;;;;;5051540;28;20186;-72
2023/05/21 00:03:12;;;;;;;14.87;12.70;;;13.90;99.90;;;;;;5016950;28;20265;-72
2023/05/21 00:05:43;;;;;;;15.63;13.40;;;13.90;99.90;;;;;;5051594;28;20590;-72
2023/05/21 00:08:10;;;;;;;14.10;11.80;;;13.90;99.90;;;;;;5045704;28;20486;-73
2023/05/21 00:10:36;;;;;;;14.20;12.70;;;13.90;99.90;;;;;;5051112;28;20537;-73
2023/05/21 00:13:01;;;;;;;13.50;12.00;;;13.90;99.90;;;;;;5050988;28;20874;-73
2023/05/21 00:15:27;;;;;;;14.63;13.00;;;13.90;99.90;;;;;;5050874;28;20227;-73
2023/05/21 00:17:53;;;;;;;14.87;13.37;;;13.90;99.90;;;;;;5051187;28;20197;-73
2023/05/21 00:20:18;;;;;;;15.93;12.60;;;13.90;99.90;;;;;;5051133;28;20185;-73
2023/05/21 00:22:44;;;;;;;15.60;12.80;;;13.90;99.90;;;;;;5050952;28;20676;-72
2023/05/21 00:25:10;;;;;;;17.17;13.40;;;13.90;99.90;;;;;;5046978;28;20205;-72
2023/05/21 00:27:36;;;;;;;15.53;12.53;;;13.80;99.90;;;;;;5050843;28;20174;-72
2023/05/21 00:30:03;;;;;;;15.37;13.27;;;13.80;99.90;;;;;;5051163;28;20462;-72
2023/05/21 00:32:28;;;;;;;14.67;12.70;;;13.80;99.90;;;;;;5051042;28;20474;-73
2023/05/21 00:34:54;;;;;;;15.90;13.30;;;13.80;99.90;;;;;;5050760;28;20420;-72
2023/05/21 00:37:20;;;;;;;13.20;11.90;;;13.80;99.90;;;;;;5050720;28;20189;-72
2023/05/21 00:39:46;;;;;;;13.50;12.10;;;13.80;99.90;;;;;;5032898;28;20470;-72
2023/05/21 00:42:16;;;;;;;15.07;12.03;;;13.80;99.90;;;;;;5050686;28;20416;-72
2023/05/21 00:44:44;;;;;;;15.23;13.13;;;13.80;99.90;;;;;;5032688;28;20349;-73
2023/05/21 00:47:12;;;;;;;13.73;12.13;;;13.80;99.90;;;;;;5049490;28;20893;-72
2023/05/21 00:49:38;;;;;;;12.73;11.43;;;13.80;99.90;;;;;;5050371;28;20417;-72
2023/05/21 00:52:04;;;;;;;12.20;10.43;;;13.70;99.90;;;;;;5051060;28;20470;-72
2023/05/21 00:54:30;;;;;;;12.80;10.90;;;13.70;99.90;;;;;;5016262;28;20474;-73
2023/05/21 00:56:56;;;;;;;11.93;10.80;;;13.70;99.90;;;;;;5050679;28;21038;-73
2023/05/21 00:59:23;;;;;;;12.53;11.20;;;13.70;99.90;;;;;;5032263;28;20435;-72
2023/05/21 01:01:55;;;;;;;11.53;10.33;;;13.70;99.90;;;;;;5050934;28;20955;-73
2023/05/21 01:04:23;;;;;;;11.67;10.30;;;13.70;99.90;;;;;;5050508;28;20425;-73
2023/05/21 01:06:49;;;;;;;10.80;9.70;;;13.70;99.90;;;;;;5032357;28;21026;-73
2023/05/21 01:09:15;;;;;;;10.67;9.60;;;13.70;99.90;;;;;;5050555;28;20440;-72
2023/05/21 01:11:45;;;;;;;10.63;9.57;;;13.70;99.90;;;;;;5050194;28;20728;-73
2023/05/21 01:14:13;;;;;;;9.53;8.63;;;13.70;99.90;;;;;;5050080;28;20412;-73
2023/05/21 01:16:41;;;;;;;11.20;9.97;;;13.70;99.90;;;;;;5050371;28;20443;-72
2023/05/21 01:19:11;;;;;;;12.50;9.70;;;13.60;99.90;;;;;;5050350;28;20432;-73
2023/05/21 01:21:41;;;;;;;10.17;9.20;;;13.70;99.90;;;;;;5050112;28;20423;-72
2023/05/21 01:24:07;;;;;;;11.40;9.50;;;13.70;99.90;;;;;;5032053;28;20424;-72
2023/05/21 01:26:37;;;;;;;10.20;9.20;;;13.60;99.90;;;;;;5050252;28;20466;-72
2023/05/21 01:29:11;;;;;;;12.10;9.03;;;13.70;99.90;;;;;;5050184;28;20774;-72
2023/05/21 01:32:01;;;;;;;10.10;9.10;;;13.70;99.90;;;;;;5050066;28;20419;-72
2023/05/21 01:34:53;;;;;;;10.37;8.77;;;13.70;99.90;;;;;;5050145;28;20404;-73
2023/05/21 01:37:21;;;;;;;11.97;8.13;;;13.60;99.90;;;;;;5041993;28;20440;-72
2023/05/21 01:39:54;;;;;;;9.87;8.90;;;13.70;99.90;;;;;;5050302;28;20416;-72
2023/05/21 01:42:23;;;;;;;8.63;7.83;;;13.60;99.90;;;;;;5049814;28;20499;-72
2023/05/21 01:44:53;;;;;;;9.70;8.03;;;13.60;99.90;;;;;;5049889;28;20486;-72
2023/05/21 01:47:22;;;;;;;10.90;8.50;;;13.50;99.90;;;;;;5049471;28;20521;-72
2023/05/21 01:49:50;;;;;;;9.47;8.57;;;13.60;99.90;;;;;;5049742;28;20415;-72
2023/05/21 01:52:16;;;;;;;8.83;7.93;;;13.60;99.90;;;;;;5049733;28;20411;-72
2023/05/21 01:54:41;;;;;;;11.60;8.30;;;13.60;99.90;;;;;;5031653;28;20405;-73
2023/05/21 01:57:07;;;;;;;9.20;8.30;;;13.60;99.90;;;;;;5049225;28;20193;-72
2023/05/21 01:59:33;;;;;;;8.93;8.07;;;13.60;99.90;;;;;;5049432;28;20646;-73
2023/05/21 02:01:59;;;;;;;9.43;8.60;;;13.50;99.90;;;;;;5031595;28;20184;-72
2023/05/21 02:04:25;;;;;;;9.73;8.50;;;13.50;99.90;;;;;;5049325;28;20813;-72
2023/05/21 02:06:50;;;;;;;9.70;8.90;;;13.50;99.90;;;;;;5031296;28;20292;-73
2023/05/21 02:09:16;;;;;;;9.77;8.00;;;13.50;99.90;;;;;;5049346;28;20415;-73
2023/05/21 02:11:42;;;;;;;10.40;9.00;;;13.50;99.90;;;;;;5048242;28;20178;-73
2023/05/21 02:14:09;;;;;;;10.43;9.33;;;13.50;99.90;;;;;;5049157;28;20400;-73
2023/05/21 02:16:37;;;;;;;9.80;8.90;;;13.40;99.90;;;;;;5049106;28;20327;-73
2023/05/21 02:19:03;;;;;;;10.30;9.20;;;13.40;99.90;;;;;;5049244;28;20920;-73
2023/05/21 02:21:29;;;;;;;10.20;8.80;;;13.40;99.90;;;;;;5049060;28;20537;-72
2023/05/21 02:23:56;;;;;;;14.03;9.10;;;13.40;99.90;;;;;;5048901;28;20944;-72
2023/05/21 02:26:21;;;;;;;10.10;8.93;;;13.40;99.90;;;;;;5048841;28;20990;-72
2023/05/21 02:28:47;;;;;;;13.70;9.33;;;13.40;99.90;;;;;;5048985;28;20409;-73
2023/05/21 02:31:13;;;;;;;10.40;8.90;;;13.40;99.90;;;;;;5048918;28;20396;-72
2023/05/21 02:33:41;;;;;;;10.13;8.67;;;13.40;99.90;;;;;;5048850;28;20557;-72
2023/05/21 02:36:11;;;;;;;9.70;8.70;;;13.40;99.90;;;;;;5049018;28;20201;-72
2023/05/21 02:38:42;;;;;;;10.27;8.67;;;13.40;99.90;;;;;;5044390;28;20471;-72
2023/05/21 02:41:09;;;;;;;10.17;9.20;;;13.40;99.90;;;;;;5048368;28;20781;-72
2023/05/21 02:43:35;;;;;;;12.03;10.20;;;13.30;99.90;;;;;;5048361;28;20419;-72
2023/05/21 02:46:01;;;;;;;11.83;10.20;;;13.30;99.90;;;;;;5048815;28;20468;-72
2023/05/21 02:48:27;;;;;;;9.37;8.47;;;13.30;99.90;;;;;;5047561;28;20474;-72
2023/05/21 02:50:53;;;;;;;10.43;9.37;;;13.30;99.90;;;;;;5048754;28;20715;-73
2023/05/21 02:53:18;;;;;;;11.60;9.90;;;13.30;99.90;;;;;;5048406;28;20169;-72
2023/05/21 02:55:44;;;;;;;10.63;9.30;;;13.20;99.90;;;;;;5048766;28;20432;-73
2023/05/21 02:58:12;;;;;;;11.40;10.30;;;13.20;99.90;;;;;;5048472;28;20205;-72
2023/05/21 03:00:38;;;;;;;11.23;10.07;;;13.20;99.90;;;;;;5048439;28;20173;-73
2023/05/21 03:03:03;;;;;;;10.67;9.57;;;13.20;99.90;;;;;;5030314;28;20412;-73
2023/05/21 03:05:29;;;;;;;11.13;9.70;;;13.10;99.90;;;;;;5048381;28;20267;-72
2023/05/21 03:07:55;;;;;;;12.23;10.40;;;13.10;99.90;;;;;;5030461;28;20192;-73
2023/05/21 03:10:21;;;;;;;11.10;9.30;;;13.10;99.90;;;;;;5048414;28;20527;-72
2023/05/21 03:12:47;;;;;;;11.17;10.17;;;13.10;99.90;;;;;;5048329;28;20440;-72
2023/05/21 03:15:15;;;;;;;11.30;9.97;;;13.20;99.90;;;;;;5046507;28;20192;-72
2023/05/21 03:17:43;;;;;;;11.57;9.77;;;13.10;99.90;;;;;;5047787;28;20182;-72
2023/05/21 03:20:15;;;;;;;11.67;10.53;;;13.10;99.90;;;;;;5048025;28;20960;-72
2023/05/21 03:22:43;;;;;;;12.73;10.77;;;13.10;99.90;;;;;;5032903;28;21002;-72
2023/05/21 03:25:09;;;;;;;11.80;10.63;;;13.10;99.90;;;;;;5052158;28;20477;-72
2023/05/21 03:27:35;;;;;;;12.13;10.20;;;13.10;99.90;;;;;;5052112;28;20436;-72
2023/05/21 03:30:01;;;;;;;11.80;10.60;;;13.10;99.90;;;;;;5052281;28;20767;-73
2023/05/21 03:32:27;;;;;;;11.47;10.37;;;13.10;99.90;;;;;;5034557;28;20166;-72
2023/05/21 03:34:52;;;;;;;13.43;10.10;;;13.10;99.90;;;;;;5051998;28;20178;-72
2023/05/21 03:37:18;;;;;;;11.10;10.00;;;13.10;99.90;;;;;;5052246;28;20270;-72
2023/05/21 03:39:43;;;;;;;11.67;10.57;;;13.00;99.90;;;;;;5051357;28;20221;-72
2023/05/21 03:42:09;;;;;;;11.43;9.83;;;13.00;99.90;;;;;;5052237;28;20181;-72
2023/05/21 03:44:35;;;;;;;11.90;10.33;;;13.00;99.90;;;;;;5051898;28;20173;-73
2023/05/21 03:47:01;;;;;;;11.47;10.40;;;13.00;99.90;;;;;;5051755;28;20210;-72
2023/05/21 03:49:26;;;;;;;12.83;10.53;;;13.00;99.90;;;;;;5051748;28;20185;-72
2023/05/21 03:51:52;;;;;;;11.90;10.70;;;13.00;99.90;;;;;;5052222;28;20540;-72
2023/05/21 03:54:18;;;;;;;12.23;11.03;;;13.00;99.90;;;;;;5051629;28;20178;-72
2023/05/21 03:56:44;;;;;;;11.20;10.10;;;12.90;99.90;;;;;;5051760;28;20435;-73
2023/05/21 03:59:09;;;;;;;11.53;10.37;;;13.00;99.90;;;;;;5051873;28;20178;-72
2023/05/21 04:01:35;;;;;;;15.00;11.30;;;13.00;99.90;;;;;;5033747;28;20181;-73
2023/05/21 04:04:01;;;;;;;12.90;11.60;;;13.00;99.90;;;;;;5051501;28;20694;-72
2023/05/21 04:06:26;;;;;;;12.20;11.00;;;13.00;99.90;;;;;;5051661;28;20220;-72
2023/05/21 04:08:52;;;;;;;11.67;10.47;;;13.00;99.90;;;;;;5051432;28;20177;-72
2023/05/21 04:11:18;;;;;;;11.57;10.20;;;13.10;99.90;;;;;;5051644;28;20252;-72
2023/05/21 04:13:43;;;;;;;11.93;10.77;;;13.00;99.90;;;;;;5051293;28;20184;-73
2023/05/21 04:16:09;;;;;;;12.60;11.30;;;13.10;99.90;;;;;;5051615;28;20216;-72
2023/05/21 04:18:35;;;;;;;12.20;10.90;;;13.00;99.90;;;;;;5033236;28;20181;-73
2023/05/21 04:21:01;;;;;;;12.50;9.90;;;13.00;99.90;;;;;;5051479;28;20217;-73
2023/05/21 04:23:27;;;;;;;12.40;11.20;;;13.00;99.90;;;;;;5051013;28;20184;-72
2023/05/21 04:25:52;;;;;;;11.80;10.70;;;13.00;99.90;;;;;;5051454;28;20460;-72
2023/05/21 04:28:18;;;;;;;11.73;10.53;;;13.00;99.90;;;;;;5051181;28;20490;-72
2023/05/21 04:30:46;;;;;;;11.23;10.13;;;13.00;99.90;;;;;;5051232;28;20174;-73
2023/05/21 04:33:16;;;;;;;13.43;11.90;;;13.10;99.90;;;;;;5049873;28;20499;-72
2023/05/21 04:35:43;;;;;;;12.07;10.70;;;13.00;99.90;;;;;;5051333;28;20432;-72
2023/05/21 04:38:09;;;;;;;12.00;10.77;;;13.10;99.90;;;;;;5033117;28;20430;-72
2023/05/21 04:40:35;;;;;;;11.73;10.53;;;13.10;99.90;;;;;;5050217;28;20424;-72
2023/05/21 04:43:00;;;;;;;13.17;11.60;;;13.10;99.90;;;;;;5050790;28;20439;-72
2023/05/21 04:45:27;;;;;;;11.93;10.73;;;13.10;99.90;;;;;;5050803;28;20569;-73
2023/05/21 04:47:52;;;;;;;12.00;10.83;;;13.10;99.90;;;;;;5050614;28;20201;-73
2023/05/21 04:50:19;;;;;;;12.80;11.57;;;13.10;99.90;;;;;;5050825;28;20413;-72
2023/05/21 04:52:44;;;;;;;12.53;11.33;;;13.10;99.90;;;;;;5033012;28;20174;-73
2023/05/21 04:55:11;;;;;;;11.67;10.60;;;13.10;99.90;;;;;;5050841;28;20905;-73
2023/05/21 04:57:37;;;;;;;12.77;11.17;;;13.10;99.90;;;;;;5050777;28;20257;-73
2023/05/21 05:00:06;;;;;;;11.83;10.73;;;13.10;99.90;;;;;;5050636;28;20507;-73
2023/05/21 05:02:31;;;;;;;12.73;11.40;;;13.10;99.90;;;;;;5048630;28;20190;-72
2023/05/21 05:04:58;;;;;;;13.33;11.93;;;13.20;99.90;;;;;;5032223;28;20413;-72
2023/05/21 05:07:24;;;;;;;15.63;10.50;;;13.20;99.90;;;;;;5030571;28;20285;-73
2023/05/21 05:09:50;;;;;;;12.37;11.20;;;13.20;99.90;;;;;;5047184;28;21026;-73
2023/05/21 05:12:15;;;;;;;12.10;10.83;;;13.20;99.90;;;;;;5050689;28;20190;-73
2023/05/21 05:14:41;;;;;;;13.70;12.40;;;13.30;99.90;;;;;;5050069;28;20547;-72
2023/05/21 05:17:08;;;;;;;13.10;11.90;;;13.20;99.90;;;;;;5032514;28;20209;-72
2023/05/21 05:19:34;;;;;;;12.27;11.17;;;13.30;99.90;;;;;;5050132;28;20189;-73
2023/05/21 05:22:00;;;;;;;13.73;12.30;;;13.30;99.90;;;;;;5032639;28;20419;-72
2023/05/21 05:24:26;;;;;;;12.67;11.40;;;13.30;99.90;;;;;;5050066;28;20260;-73
2023/05/21 05:26:51;;;;;;;12.40;11.17;;;13.30;99.90;;;;;;5050258;28;20471;-72
2023/05/21 05:29:17;;;;;;;11.83;10.67;;;13.30;99.90;;;;;;5050151;28;20336;-72
2023/05/21 05:31:43;;;;;;;13.17;11.70;;;13.30;99.90;;;;;;5050303;28;20188;-72
2023/05/21 05:34:08;;;;;;;12.63;11.33;;;13.40;99.90;;;;;;5050174;28;20197;-72
2023/05/21 05:36:34;;;;;;;11.93;10.70;;;13.40;99.90;;;;;;5032379;28;20668;-72
2023/05/21 05:39:00;;;;;;;13.60;12.20;;;13.40;99.90;;;;;;5032080;28;20596;-72
2023/05/21 05:41:25;;;;;;;13.20;11.80;;;13.40;99.90;;;;;;5049837;28;20205;-72
2023/05/21 05:43:51;;;;;;;12.57;11.27;;;13.40;99.90;;;;;;5049670;28;20268;-73
2023/05/21 05:46:17;;;;;;;12.30;11.00;;;13.50;99.90;;;;;;5049322;28;20474;-72
2023/05/21 05:48:42;;;;;;;12.33;10.83;;;13.50;99.90;;;;;;5048592;28;20614;-72
2023/05/21 05:51:08;;;;;;;14.20;12.70;;;13.60;99.90;;;;;;5031801;28;20208;-72
2023/05/21 05:53:34;;;;;;;13.03;11.73;;;13.60;99.90;;;;;;5049586;28;20173;-72
2023/05/21 05:55:59;;;;;;;14.93;11.60;;;13.60;99.90;;;;;;5049610;28;20228;-72
2023/05/21 05:58:25;;;;;;;13.07;11.63;;;13.60;99.90;;;;;;5049546;28;20189;-73
2023/05/21 06:00:51;;;;;;;12.10;10.87;;;13.60;99.90;;;;;;5049647;28;20572;-72
2023/05/21 06:03:17;;;;;;;13.20;11.90;;;13.60;99.90;;;;;;5049545;28;20190;-72
2023/05/21 06:05:43;;;;;;;13.27;11.97;;;13.70;99.90;;;;;;5031565;28;20327;-73
2023/05/21 06:08:09;;;;;;;13.37;11.97;;;13.70;99.90;;;;;;5049295;28;20539;-73
2023/05/21 06:10:34;;;;;;;13.10;11.70;;;13.70;99.90;;;;;;5031297;28;20475;-73
2023/05/21 06:13:00;;;;;;;11.83;10.70;;;13.80;99.90;;;;;;5049265;28;20186;-72
2023/05/21 06:15:26;;;;;;;12.50;11.20;;;13.70;99.90;;;;;;5031357;28;20375;-72
2023/05/21 06:17:51;;;;;;;13.20;11.90;;;13.80;99.90;;;;;;5049334;28;20256;-72
2023/05/21 06:20:17;;;;;;;12.83;11.57;;;13.80;99.90;;;;;;5031216;28;20184;-73
2023/05/21 06:22:43;;;;;;;12.07;10.90;;;13.80;99.90;;;;;;5049250;28;20182;-73
2023/05/21 06:25:10;;;;;;;15.87;12.70;;;13.90;99.90;;;;;;5048933;28;20232;-72
2023/05/21 06:27:37;;;;;;;12.70;11.40;;;13.90;99.90;;;;;;5049153;28;20205;-73
2023/05/21 06:30:03;;;;;;;15.40;12.20;;;14.00;99.90;;;;;;5048773;28;20423;-73
2023/05/21 06:32:29;;;;;;;13.07;11.70;;;14.00;99.90;;;;;;5049173;28;20424;-73
2023/05/21 06:34:54;;;;;;;16.90;12.73;;;14.00;99.90;;;;;;5047092;28;20967;-73
2023/05/21 06:37:20;;;;;;;12.60;11.40;;;14.00;99.90;;;;;;5048653;28;20254;-72
2023/05/21 06:39:46;;;;;;;13.20;11.97;;;14.10;99.90;;;;;;5047775;28;20178;-73
2023/05/21 06:42:12;;;;;;;12.33;11.13;;;14.20;99.90;;;;;;5048950;28;20504;-73
2023/05/21 06:44:38;;;;;;;13.13;10.97;;;14.20;99.90;;;;;;5048532;28;20901;-73
2023/05/21 06:47:04;;;;;;;13.93;12.53;;;14.30;99.90;;;;;;5029603;28;20237;-73
2023/05/21 06:49:30;;;;;;;12.37;11.13;;;14.30;99.90;;;;;;5048727;28;20661;-73
2023/05/21 06:51:56;;;;;;;12.83;11.43;;;14.30;99.90;;;;;;5030930;28;20413;-73
2023/05/21 06:54:22;;;;;;;16.07;12.77;;;14.40;99.90;;;;;;5030757;28;20420;-73
2023/05/21 06:56:47;;;;;;;13.40;12.10;;;14.40;99.90;;;;;;5048017;28;20225;-72
2023/05/21 06:59:13;;;;;;;13.27;11.97;;;14.40;99.90;;;;;;5048761;28;20182;-72
2023/05/21 07:01:41;;;;;;;14.60;13.10;;;14.50;99.90;;;;;;5030775;28;20190;-73
2023/05/21 07:04:07;;;;;;;15.13;13.53;;;14.50;99.90;;;;;;5048382;28;20265;-72
2023/05/21 07:06:34;;;;;;;13.87;12.37;;;14.50;99.90;;;;;;5048488;28;20481;-73
2023/05/21 07:08:59;;;;;;;15.60;12.20;;;14.50;99.90;;;;;;5048232;28;20421;-73
2023/05/21 07:11:27;;;;;;;13.90;12.50;;;14.60;99.90;;;;;;5030572;28;20950;-73
2023/05/21 07:13:54;;;;;;;13.73;12.40;;;14.60;99.90;;;;;;5048242;28;20166;-73
2023/05/21 07:16:20;;;;;;;15.33;12.73;;;14.70;99.90;;;;;;5048445;28;20856;-72
2023/05/21 07:18:45;;;;;;;14.03;12.57;;;14.80;99.90;;;;;;5030637;28;20495;-73
2023/05/21 07:21:11;;;;;;;14.13;12.80;;;14.80;99.90;;;;;;5048249;28;20190;-73
2023/05/21 07:23:37;;;;;;;14.90;13.30;;;14.90;99.90;;;;;;5045205;28;20178;-72
2023/05/21 07:26:02;;;;;;;14.00;12.50;;;15.00;99.90;;;;;;5047143;28;20221;-73
2023/05/21 07:28:28;;;;;;;13.43;12.13;;;15.00;99.90;;;;;;5044458;28;20192;-72
2023/05/21 07:30:54;;;;;;;14.23;12.73;;;15.00;99.90;;;;;;5044024;28;20186;-72
2023/05/21 07:33:21;;;;;;;14.60;13.10;;;15.10;99.90;;;;;;5046182;28;20212;-72
2023/05/21 07:35:47;;;;;;;15.30;12.73;;;15.10;99.90;;;;;;5048488;28;20232;-72
2023/05/21 07:38:13;;;;;;;15.93;14.33;;;15.10;99.90;;;;;;5048565;28;20430;-72
2023/05/21 07:40:38;;;;;;;16.27;14.57;;;15.20;99.90;;;;;;5047431;28;20888;-72
2023/05/21 07:43:04;;;;;;;14.90;13.37;;;15.20;99.90;;;;;;5048171;28;20181;-72
2023/05/21 07:45:30;;;;;;;15.30;13.80;;;15.40;99.90;;;;;;5048042;28;20320;-72
2023/05/21 07:47:57;;;;;;;16.23;14.50;;;15.40;99.90;;;;;;5047851;28;20233;-72
2023/05/21 07:50:23;;;;;;;15.33;13.80;;;15.50;99.90;;;;;;5042605;28;20482;-72
2023/05/21 07:52:48;;;;;;;16.73;15.00;;;15.50;99.90;;;;;;5025810;28;20259;-72
2023/05/21 07:55:14;;;;;;;18.33;15.07;;;15.60;99.90;;;;;;5046564;28;20451;-72
2023/05/21 07:57:40;;;;;;;16.47;14.70;;;15.60;99.90;;;;;;5045753;28;20206;-72
2023/05/21 08:00:12;;;;;;;16.80;14.90;;;15.60;99.90;;;;;;5046960;28;20308;-72
2023/05/21 08:02:38;;;;;;;20.83;15.50;;;15.70;99.90;;;;;;5029600;28;20232;-72
2023/05/21 08:05:05;;;;;;;15.07;13.53;;;15.70;99.90;;;;;;5047015;28;20436;-72
2023/05/21 08:07:31;;;;;;;15.67;14.07;;;15.80;99.90;;;;;;5045747;28;20467;-72
2023/05/21 08:09:57;;;;;;;16.37;14.30;;;15.80;99.90;;;;;;5049498;28;20436;-72
2023/05/21 08:12:23;;;;;;;15.50;14.00;;;15.90;99.90;;;;;;5031105;28;20479;-73
2023/05/21 08:14:49;;;;;;;15.70;14.00;;;16.00;99.90;;;;;;5046795;28;20527;-72
2023/05/21 08:17:15;;;;;;;14.60;13.20;;;16.00;99.90;;;;;;5050306;28;20555;-72
2023/05/21 08:19:41;;;;;;;15.50;13.90;;;16.10;99.90;;;;;;5050954;28;20229;-72
2023/05/21 08:22:07;;;;;;;16.27;14.53;;;16.10;99.90;;;;;;5050480;28;20439;-72
2023/05/21 08:24:32;;;;;;;15.50;14.00;;;16.20;99.90;;;;;;5049176;28;20228;-72
2023/05/21 08:26:58;;;;;;;16.60;14.43;;;16.20;99.90;;;;;;5031773;28;20217;-72
2023/05/21 08:29:24;;;;;;;14.90;13.40;;;16.30;99.90;;;;;;5046917;28;20700;-72
2023/05/21 08:31:50;;;;;;;15.70;14.10;;;16.30;99.90;;;;;;5043735;28;20197;-72
2023/05/21 08:34:17;;;;;;;15.90;14.20;;;16.40;99.90;;;;;;5048462;28;20448;-73
2023/05/21 08:36:44;;;;;;;15.00;13.43;;;16.40;99.90;;;;;;5049885;28;20202;-72
2023/05/21 08:39:11;;;;;;;14.73;13.07;;;16.50;99.90;;;;;;5030684;28;20866;-72
2023/05/21 08:41:38;;;;;;;15.13;13.53;;;16.50;99.90;;;;;;5046664;28;20520;-72
2023/05/21 08:44:10;;;;;;;15.73;14.13;;;16.60;99.90;;;;;;5049416;28;20483;-72
2023/05/21 08:46:39;;;;;;;15.43;13.90;;;16.70;99.90;;;;;;5044766;28;21004;-72
2023/05/21 08:49:07;;;;;;;15.47;13.97;;;16.80;99.90;;;;;;5046631;28;20498;-72
2023/05/21 08:51:33;;;;;;;17.20;15.50;;;16.80;99.90;;;;;;5045119;28;20455;-72
2023/05/21 08:54:00;;;;;;;15.87;14.17;;;16.90;99.90;;;;;;5046154;28;20505;-72
2023/05/21 08:56:26;;;;;;;15.93;14.33;;;16.90;99.90;;;;;;5047911;28;20650;-72
2023/05/21 08:58:52;;;;;;;14.93;13.43;;;17.00;99.90;;;;;;5041246;28;21186;-73
2023/05/21 09:01:19;;;;;;;15.53;14.03;;;17.10;99.90;;;;;;5040432;28;20452;-73
2023/05/21 09:03:46;;;;;;;15.90;14.40;;;17.10;99.90;;;;;;5045086;28;20884;-73
2023/05/21 09:06:15;;;;;;;18.60;16.70;;;17.20;99.90;;;;;;5046446;28;20552;-72
2023/05/21 09:08:47;;;;;;;17.80;15.40;;;17.20;99.90;;;;;;5048849;28;20452;-73
2023/05/21 09:11:13;;;;;;;17.87;15.50;;;17.20;99.90;;;;;;5045541;28;20445;-72
2023/05/21 09:13:40;;;;;;;17.17;15.40;;;17.30;99.90;;;;;;5046602;28;20452;-72
2023/05/21 09:16:06;;;;;;;17.40;15.70;;;17.40;99.90;;;;;;5040090;28;20451;-72
2023/05/21 09:18:32;;;;;;;16.50;14.90;;;17.50;99.90;;;;;;5048780;28;20854;-72
2023/05/21 09:21:18;;;;;;;17.43;15.63;;;17.60;99.90;;;;;;5048178;28;20440;-72
2023/05/21 09:23:44;;;;;;;15.43;13.83;;;17.70;99.90;;;;;;5045783;28;20554;-72
2023/05/21 09:26:11;;;;;;;16.37;14.67;;;17.80;99.90;;;;;;5049389;28;20518;-72
2023/05/21 09:28:37;;;;;;;16.37;14.73;;;18.00;99.90;;;;;;5031185;28;20254;-72
2023/05/21 09:31:03;;;;;;;18.70;14.57;;;18.00;99.90;;;;;;5030184;28;20854;-72
2023/05/21 09:33:29;;;;;;;16.87;15.17;;;18.10;99.90;;;;;;5047323;28;20193;-73
2023/05/21 09:35:54;;;;;;;15.40;13.90;;;18.20;99.90;;;;;;5048917;28;20674;-72
2023/05/21 09:38:24;;;;;;;15.80;14.30;;;18.30;99.90;;;;;;5049221;28;20682;-72
2023/05/21 09:40:53;;;;;;;17.67;15.97;;;18.30;99.90;;;;;;5049503;28;20182;-72
2023/05/21 09:43:20;;;;;;;16.40;14.80;;;18.30;99.90;;;;;;5046663;28;20473;-72
2023/05/21 09:45:54;;;;;;;16.97;15.27;;;18.30;99.90;;;;;;5042209;28;20537;-72
2023/05/21 09:48:33;;;;;;;17.17;15.37;;;18.40;99.90;;;;;;5030740;28;20447;-73
2023/05/21 09:51:19;;;;;;;16.90;15.20;;;18.30;99.90;;;;;;5044335;28;20671;-72
2023/05/21 09:53:52;;;;;;;16.47;14.77;;;18.30;99.90;;;;;;5046280;28;20416;-73
2023/05/21 09:56:23;;;;;;;17.30;15.40;;;18.30;99.90;;;;;;5046505;28;20495;-72
2023/05/21 09:58:59;;;;;;;16.83;15.23;;;18.30;99.90;;;;;;5045489;28;20768;-72
2023/05/21 10:01:24;;;;;;;18.67;16.80;;;18.40;99.90;;;;;;5045083;28;20481;-73
2023/05/21 10:03:55;;;;;;;17.57;15.70;;;18.40;99.90;;;;;;5045366;28;20856;-73
2023/05/21 10:06:26;;;;;;;17.17;15.40;;;18.40;99.90;;;;;;5049452;28;20275;-73
2023/05/21 10:08:57;;;;;;;17.80;15.90;;;18.50;99.90;;;;;;5048888;28;20420;-73
2023/05/21 10:11:25;;;;;;;18.00;16.10;;;18.60;99.90;;;;;;5046889;28;20460;-73
2023/05/21 10:14:03;;;;;;;20.03;16.50;;;18.50;99.90;;;;;;5044635;28;20420;-73
2023/05/21 10:16:31;;;;;;;17.87;16.10;;;18.60;99.90;;;;;;5049518;28;20455;-72
2023/05/21 10:18:58;;;;;;;19.73;15.80;;;18.60;99.90;;;;;;5049055;28;20452;-73
2023/05/21 10:21:25;;;;;;;18.77;16.77;;;18.60;99.90;;;;;;5049201;28;20449;-73
2023/05/21 10:23:52;;;;;;;19.37;17.40;;;18.60;99.90;;;;;;5048797;28;20559;-73
2023/05/21 10:26:20;;;;;;;19.53;16.97;;;18.70;99.90;;;;;;5049142;28;20468;-73
2023/05/21 10:28:47;;;;;;;18.67;16.83;;;18.70;99.90;;;;;;5048746;28;20673;-73
2023/05/21 10:31:13;;;;;;;18.87;16.97;;;18.70;99.90;;;;;;5048135;28;20420;-73
2023/05/21 10:33:41;;;;;;;20.10;17.90;;;18.80;99.90;;;;;;5046414;28;20995;-73
2023/05/21 10:36:07;;;;;;;21.07;18.87;;;18.90;99.90;;;;;;5048999;28;20444;-73
2023/05/21 10:38:34;;;;;;;18.97;16.97;;;18.90;99.90;;;;;;5048134;28;20420;-73
2023/05/21 10:41:03;;;;;;;18.50;16.60;;;18.90;99.90;;;;;;5048733;28;20416;-73
2023/05/21 10:43:50;;;;;;;20.30;18.30;;;18.90;99.90;;;;;;5048549;28;20451;-73
2023/05/21 10:46:40;;;;;;;20.00;17.50;;;18.90;99.90;;;;;;5044477;28;20890;-73
2023/05/21 10:49:33;;;;;;;20.40;18.30;;;18.90;99.90;;;;;;5045736;28;20507;-73
2023/05/21 10:52:19;;;;;;;21.30;18.00;;;18.90;99.90;;;;;;5048838;28;20424;-73
2023/05/21 10:55:22;;;;;;;21.17;18.03;;;19.00;99.90;;;;;;5041105;28;20416;-73
2023/05/21 10:57:57;;;;;;;20.03;18.03;;;19.00;99.90;;;;;;5048182;28;20427;-73
2023/05/21 11:00:24;;;;;;;20.10;18.10;;;19.00;99.90;;;;;;5048635;28;20764;-73
2023/05/21 11:02:51;;;;;;;20.30;18.20;;;19.00;99.90;;;;;;5048695;28;21026;-73
2023/05/21 11:05:39;;;;;;;20.33;18.23;;;19.10;99.90;;;;;;5048186;28;20448;-73
2023/05/21 11:08:17;;;;;;;19.90;17.80;;;19.10;99.90;;;;;;5041912;28;20419;-73
2023/05/21 11:10:44;;;;;;;21.13;18.93;;;19.10;99.90;;;;;;5044806;28;20417;-73
2023/05/21 11:13:12;;;;;;;21.93;19.30;;;19.20;99.90;;;;;;5047764;28;20735;-73
2023/05/21 11:15:56;;;;;;;20.33;18.20;;;19.30;99.90;;;;;;5048708;28;20451;-73
2023/05/21 11:18:23;;;;;;;20.53;17.80;;;19.30;99.90;;;;;;5047960;28;20427;-73
2023/05/21 11:20:52;;;;;;;19.37;17.47;;;19.30;99.90;;;;;;5048089;28;20412;-73
2023/05/21 11:23:19;;;;;;;21.37;17.40;;;19.40;99.90;;;;;;5047885;28;20500;-73
2023/05/21 11:26:00;;;;;;;20.80;18.70;;;19.50;99.90;;;;;;5048345;28;20470;-73
2023/05/21 11:28:33;;;;;;;19.47;17.50;;;19.50;99.90;;;;;;5044553;28;20451;-73
2023/05/21 11:31:37;;;;;;;19.90;17.27;;;19.50;99.90;;;;;;5048215;28;20449;-73
2023/05/21 11:34:15;;;;;;;21.20;19.00;;;19.60;99.90;;;;;;4946040;28;20465;-73
2023/05/21 11:36:43;;;;;;;20.90;18.50;;;19.80;99.90;;;;;;5037620;28;20482;-73
2023/05/21 11:39:14;;;;;;;22.20;18.93;;;19.80;99.90;;;;;;5044055;28;20442;-73
2023/05/21 11:42:00;;;;;;;21.73;18.67;;;19.80;99.90;;;;;;5046399;28;20779;-73
2023/05/21 11:44:39;;;;;;;20.87;18.67;;;19.90;99.90;;;;;;5050045;28;20494;-73
2023/05/21 11:47:10;;;;;;;19.40;17.50;;;20.00;99.90;;;;;;5051650;28;20467;-73
2023/05/21 11:49:37;;;;;;;18.10;16.30;;;20.00;99.90;;;;;;5051906;28;20914;-73
2023/05/21 11:52:04;;;;;;;19.90;18.00;;;20.00;99.90;;;;;;5052180;28;20408;-73
2023/05/21 11:54:34;;;;;;;20.50;18.43;;;20.10;99.90;;;;;;5044123;28;20500;-73
2023/05/21 11:57:01;;;;;;;21.37;19.07;;;20.20;99.90;;;;;;5049362;28;20995;-73
2023/05/21 11:59:26;;;;;;;20.70;18.70;;;20.20;99.90;;;;;;5050799;28;20838;-73
2023/05/21 12:01:53;;;;;;;20.50;18.47;;;20.20;99.90;;;;;;5052084;28;20408;-73
2023/05/21 12:04:19;;;;;;;20.03;18.03;;;20.20;99.90;;;;;;5051634;28;20182;-73
2023/05/21 12:06:47;;;;;;;21.50;19.30;;;20.30;99.90;;;;;;5051548;28;20464;-72
2023/05/21 12:09:13;;;;;;;21.40;19.20;;;20.20;99.90;;;;;;5051672;28;20466;-73
2023/05/21 12:11:40;;;;;;;22.30;20.10;;;20.30;99.90;;;;;;5051488;28;20427;-73
2023/05/21 12:14:12;;;;;;;20.27;18.13;;;20.30;99.90;;;;;;5051414;28;20775;-73
2023/05/21 12:16:38;;;;;;;21.50;19.10;;;20.30;99.90;;;;;;5033832;28;20482;-73
2023/05/21 12:19:05;;;;;;;22.10;19.53;;;20.40;99.90;;;;;;5051517;28;20470;-73
2023/05/21 12:21:31;;;;;;;23.13;20.73;;;20.40;99.90;;;;;;5051235;28;20426;-73
2023/05/21 12:23:58;;;;;;;21.80;19.60;;;20.40;99.90;;;;;;5051372;28;20939;-72
2023/05/21 12:26:24;;;;;;;20.50;18.50;;;20.50;99.90;;;;;;5033352;28;20468;-73
2023/05/21 12:28:54;;;;;;;21.57;19.47;;;20.50;99.90;;;;;;5050646;28;20896;-73
2023/05/21 12:31:23;;;;;;;23.33;19.37;;;20.50;99.90;;;;;;5031428;28;20894;-73